sensor_id;sensor_type;location;lat;lon;timestamp;P1;durP1;ratioP1;P2;durP2;ratioP2
25107;SDS011;13090;53.422;7.670;2023-03-01T00:02:00;14.35;;;9.00;;
25107;SDS011;13090;53.422;7.670;2023-03-01T00:07:02;16.80;;;9.30;;
25107;SDS011;13090;53.422;7.670;2023-03-01T00:12:04;10.20;;;6.93;;
25107;SDS011;13090;53.422;7.670;2023-03-01T00:17:09;12.15;;;7.75;;
25107;SDS011;13090;53.422;7.670;2023-03-01T00:22:11;18.05;;;9.43;;
25107;SDS011;13090;53.422;7.670;2023-03-01T00:27:13;16.48;;;9.30;;
25107;SDS011;13090;53.422;7.670;2023-03-01T00:32:17;12.77;;;8.23;;
25107;SDS011;13090;53.422;7.670;2023-03-01T00:37:19;20.58;;;11.57;;
25107;SDS011;13090;53.422;7.670;2023-03-01T00:42:21;12.25;;;8.63;;
25107;SDS011;13090;53.422;7.670;2023-03-01T00:47:25;23.50;;;12.55;;
25107;SDS011;13090;53.422;7.670;2023-03-01T00:52:29;26.57;;;12.70;;
25107;SDS011;13090;53.422;7.670;2023-03-01T00:57:31;27.48;;;14.15;;
25107;SDS011;13090;53.422;7.670;2023-03-01T01:02:35;21.73;;;12.60;;
25107;SDS011;13090;53.422;7.670;2023-03-01T01:07:37;21.15;;;12.90;;
25107;SDS011;13090;53.422;7.670;2023-03-01T01:12:40;25.30;;;12.88;;
25107;SDS011;13090;53.422;7.670;2023-03-01T01:17:43;26.73;;;14.13;;
25107;SDS011;13090;53.422;7.670;2023-03-01T01:22:45;43.45;;;17.33;;
25107;SDS011;13090;53.422;7.670;2023-03-01T01:27:48;66.70;;;16.48;;
25107;SDS011;13090;53.422;7.670;2023-03-01T01:32:51;61.63;;;17.92;;
25107;SDS011;13090;53.422;7.670;2023-03-01T01:37:53;71.78;;;16.23;;
25107;SDS011;13090;53.422;7.670;2023-03-01T01:42:56;86.07;;;15.15;;
25107;SDS011;13090;53.422;7.670;2023-03-01T01:48:01;64.75;;;15.45;;
25107;SDS011;13090;53.422;7.670;2023-03-01T01:53:07;30.67;;;14.25;;
25107;SDS011;13090;53.422;7.670;2023-03-01T01:58:13;21.13;;;12.75;;
25107;SDS011;13090;53.422;7.670;2023-03-01T02:08:27;21.40;;;12.85;;
25107;SDS011;13090;53.422;7.670;2023-03-01T02:13:32;24.98;;;12.38;;
25107;SDS011;13090;53.422;7.670;2023-03-01T02:18:37;107.90;;;15.43;;
25107;SDS011;13090;53.422;7.670;2023-03-01T02:23:39;36.97;;;12.65;;
25107;SDS011;13090;53.422;7.670;2023-03-01T02:28:43;23.08;;;11.95;;
25107;SDS011;13090;53.422;7.670;2023-03-01T02:33:47;26.45;;;13.60;;
25107;SDS011;13090;53.422;7.670;2023-03-01T02:38:50;32.97;;;14.43;;
25107;SDS011;13090;53.422;7.670;2023-03-01T02:43:56;46.75;;;15.77;;
25107;SDS011;13090;53.422;7.670;2023-03-01T02:48:58;51.65;;;15.40;;
25107;SDS011;13090;53.422;7.670;2023-03-01T02:54:05;30.48;;;14.10;;
25107;SDS011;13090;53.422;7.670;2023-03-01T02:59:18;22.15;;;13.20;;
25107;SDS011;13090;53.422;7.670;2023-03-01T03:04:22;24.33;;;14.10;;
25107;SDS011;13090;53.422;7.670;2023-03-01T03:09:24;23.05;;;13.77;;
25107;SDS011;13090;53.422;7.670;2023-03-01T03:14:28;23.85;;;13.35;;
25107;SDS011;13090;53.422;7.670;2023-03-01T03:19:30;24.60;;;13.68;;
25107;SDS011;13090;53.422;7.670;2023-03-01T03:24:32;15.65;;;10.27;;
25107;SDS011;13090;53.422;7.670;2023-03-01T03:29:36;16.10;;;10.68;;
25107;SDS011;13090;53.422;7.670;2023-03-01T03:34:38;19.80;;;11.00;;
25107;SDS011;13090;53.422;7.670;2023-03-01T03:39:40;18.23;;;10.93;;
25107;SDS011;13090;53.422;7.670;2023-03-01T03:44:44;18.65;;;11.48;;
25107;SDS011;13090;53.422;7.670;2023-03-01T03:49:46;48.47;;;12.55;;
25107;SDS011;13090;53.422;7.670;2023-03-01T03:54:48;20.08;;;11.77;;
25107;SDS011;13090;53.422;7.670;2023-03-01T03:59:51;19.85;;;10.85;;
25107;SDS011;13090;53.422;7.670;2023-03-01T04:04:53;23.60;;;12.55;;
25107;SDS011;13090;53.422;7.670;2023-03-01T04:09:55;19.77;;;11.65;;
25107;SDS011;13090;53.422;7.670;2023-03-01T04:14:59;19.73;;;12.23;;
25107;SDS011;13090;53.422;7.670;2023-03-01T04:20:01;18.58;;;11.63;;
25107;SDS011;13090;53.422;7.670;2023-03-01T04:25:04;20.42;;;12.25;;
25107;SDS011;13090;53.422;7.670;2023-03-01T04:30:08;54.22;;;13.93;;
25107;SDS011;13090;53.422;7.670;2023-03-01T04:35:11;73.72;;;14.25;;
25107;SDS011;13090;53.422;7.670;2023-03-01T04:40:13;57.75;;;13.13;;
25107;SDS011;13090;53.422;7.670;2023-03-01T04:45:17;42.92;;;12.82;;
25107;SDS011;13090;53.422;7.670;2023-03-01T04:50:20;68.40;;;14.43;;
25107;SDS011;13090;53.422;7.670;2023-03-01T04:55:22;58.95;;;14.75;;
25107;SDS011;13090;53.422;7.670;2023-03-01T05:00:26;84.60;;;14.68;;
25107;SDS011;13090;53.422;7.670;2023-03-01T05:05:28;65.93;;;13.57;;
25107;SDS011;13090;53.422;7.670;2023-03-01T05:10:34;56.10;;;14.35;;
25107;SDS011;13090;53.422;7.670;2023-03-01T05:15:39;90.93;;;15.80;;
25107;SDS011;13090;53.422;7.670;2023-03-01T05:20:41;103.60;;;15.07;;
25107;SDS011;13090;53.422;7.670;2023-03-01T05:25:43;136.40;;;17.13;;
25107;SDS011;13090;53.422;7.670;2023-03-01T05:30:47;75.60;;;13.35;;
25107;SDS011;13090;53.422;7.670;2023-03-01T05:35:50;24.88;;;9.50;;
25107;SDS011;13090;53.422;7.670;2023-03-01T05:40:52;61.75;;;13.05;;
25107;SDS011;13090;53.422;7.670;2023-03-01T05:45:57;77.43;;;13.80;;
25107;SDS011;13090;53.422;7.670;2023-03-01T05:50:59;47.97;;;11.55;;
25107;SDS011;13090;53.422;7.670;2023-03-01T05:56:02;29.17;;;11.05;;
25107;SDS011;13090;53.422;7.670;2023-03-01T06:01:10;52.47;;;12.57;;
25107;SDS011;13090;53.422;7.670;2023-03-01T06:06:13;64.45;;;14.25;;
25107;SDS011;13090;53.422;7.670;2023-03-01T06:11:15;95.53;;;15.35;;
25107;SDS011;13090;53.422;7.670;2023-03-01T06:16:19;102.00;;;12.60;;
25107;SDS011;13090;53.422;7.670;2023-03-01T06:21:21;77.93;;;13.32;;
25107;SDS011;13090;53.422;7.670;2023-03-01T06:26:23;56.35;;;9.05;;
25107;SDS011;13090;53.422;7.670;2023-03-01T06:31:27;62.25;;;15.55;;
25107;SDS011;13090;53.422;7.670;2023-03-01T06:36:29;49.60;;;10.57;;
25107;SDS011;13090;53.422;7.670;2023-03-01T06:41:32;45.67;;;9.48;;
25107;SDS011;13090;53.422;7.670;2023-03-01T06:46:36;23.60;;;9.07;;
25107;SDS011;13090;53.422;7.670;2023-03-01T06:51:39;34.90;;;9.27;;
25107;SDS011;13090;53.422;7.670;2023-03-01T06:56:42;55.17;;;8.73;;
25107;SDS011;13090;53.422;7.670;2023-03-01T07:01:45;85.43;;;12.35;;
25107;SDS011;13090;53.422;7.670;2023-03-01T07:06:47;63.15;;;15.82;;
25107;SDS011;13090;53.422;7.670;2023-03-01T07:11:50;53.85;;;11.75;;
25107;SDS011;13090;53.422;7.670;2023-03-01T07:16:54;36.50;;;11.07;;
25107;SDS011;13090;53.422;7.670;2023-03-01T07:21:56;41.78;;;12.32;;
25107;SDS011;13090;53.422;7.670;2023-03-01T07:26:58;28.23;;;12.60;;
25107;SDS011;13090;53.422;7.670;2023-03-01T07:32:02;53.88;;;10.68;;
25107;SDS011;13090;53.422;7.670;2023-03-01T07:37:05;46.15;;;11.82;;
25107;SDS011;13090;53.422;7.670;2023-03-01T07:42:07;56.97;;;12.50;;
25107;SDS011;13090;53.422;7.670;2023-03-01T07:47:11;83.28;;;12.98;;
25107;SDS011;13090;53.422;7.670;2023-03-01T07:52:13;61.88;;;11.10;;
25107;SDS011;13090;53.422;7.670;2023-03-01T07:57:15;54.30;;;11.95;;
25107;SDS011;13090;53.422;7.670;2023-03-01T08:02:19;37.33;;;11.05;;
25107;SDS011;13090;53.422;7.670;2023-03-01T08:07:21;34.97;;;12.45;;
25107;SDS011;13090;53.422;7.670;2023-03-01T08:12:23;31.52;;;12.07;;
25107;SDS011;13090;53.422;7.670;2023-03-01T08:17:27;26.02;;;13.18;;
25107;SDS011;13090;53.422;7.670;2023-03-01T08:22:29;28.33;;;12.60;;
25107;SDS011;13090;53.422;7.670;2023-03-01T08:27:31;35.42;;;13.15;;
25107;SDS011;13090;53.422;7.670;2023-03-01T08:32:37;36.30;;;10.90;;
25107;SDS011;13090;53.422;7.670;2023-03-01T08:37:40;35.63;;;10.25;;
25107;SDS011;13090;53.422;7.670;2023-03-01T08:42:42;32.67;;;10.18;;
25107;SDS011;13090;53.422;7.670;2023-03-01T08:47:46;67.10;;;13.18;;
25107;SDS011;13090;53.422;7.670;2023-03-01T08:52:48;73.72;;;32.70;;
25107;SDS011;13090;53.422;7.670;2023-03-01T08:57:50;40.42;;;23.38;;
25107;SDS011;13090;53.422;7.670;2023-03-01T09:02:54;31.63;;;11.23;;
25107;SDS011;13090;53.422;7.670;2023-03-01T09:07:56;22.60;;;11.60;;
25107;SDS011;13090;53.422;7.670;2023-03-01T09:12:59;16.85;;;9.25;;
25107;SDS011;13090;53.422;7.670;2023-03-01T09:18:03;24.52;;;9.15;;
25107;SDS011;13090;53.422;7.670;2023-03-01T09:23:05;12.35;;;8.15;;
25107;SDS011;13090;53.422;7.670;2023-03-01T09:28:07;11.68;;;7.88;;
25107;SDS011;13090;53.422;7.670;2023-03-01T09:33:26;15.93;;;9.30;;
25107;SDS011;13090;53.422;7.670;2023-03-01T09:38:29;16.60;;;9.98;;
25107;SDS011;13090;53.422;7.670;2023-03-01T09:43:32;15.60;;;9.88;;
25107;SDS011;13090;53.422;7.670;2023-03-01T09:48:44;16.35;;;9.65;;
25107;SDS011;13090;53.422;7.670;2023-03-01T09:53:52;15.07;;;9.30;;
25107;SDS011;13090;53.422;7.670;2023-03-01T09:58:54;15.50;;;9.45;;
25107;SDS011;13090;53.422;7.670;2023-03-01T10:04:20;16.43;;;10.03;;
25107;SDS011;13090;53.422;7.670;2023-03-01T10:09:30;18.23;;;10.82;;
25107;SDS011;13090;53.422;7.670;2023-03-01T10:14:36;12.65;;;8.88;;
25107;SDS011;13090;53.422;7.670;2023-03-01T10:19:46;13.23;;;9.02;;
25107;SDS011;13090;53.422;7.670;2023-03-01T10:24:49;13.23;;;9.77;;
25107;SDS011;13090;53.422;7.670;2023-03-01T10:29:54;14.40;;;8.73;;
25107;SDS011;13090;53.422;7.670;2023-03-01T10:35:17;12.07;;;9.13;;
25107;SDS011;13090;53.422;7.670;2023-03-01T10:40:20;12.02;;;8.48;;
25107;SDS011;13090;53.422;7.670;2023-03-01T10:45:27;9.57;;;7.25;;
25107;SDS011;13090;53.422;7.670;2023-03-01T10:50:35;10.52;;;7.28;;
25107;SDS011;13090;53.422;7.670;2023-03-01T10:55:39;13.07;;;9.23;;
25107;SDS011;13090;53.422;7.670;2023-03-01T11:00:46;13.52;;;8.80;;
25107;SDS011;13090;53.422;7.670;2023-03-01T11:05:53;14.10;;;9.93;;
25107;SDS011;13090;53.422;7.670;2023-03-01T11:11:06;11.27;;;8.55;;
25107;SDS011;13090;53.422;7.670;2023-03-01T11:16:22;10.13;;;8.18;;
25107;SDS011;13090;53.422;7.670;2023-03-01T11:21:38;12.27;;;8.55;;
25107;SDS011;13090;53.422;7.670;2023-03-01T11:26:45;14.13;;;11.20;;
25107;SDS011;13090;53.422;7.670;2023-03-01T11:31:53;14.23;;;10.15;;
25107;SDS011;13090;53.422;7.670;2023-03-01T11:37:01;14.00;;;10.23;;
25107;SDS011;13090;53.422;7.670;2023-03-01T11:42:11;15.20;;;11.45;;
25107;SDS011;13090;53.422;7.670;2023-03-01T11:47:25;13.70;;;9.55;;
25107;SDS011;13090;53.422;7.670;2023-03-01T11:52:39;13.68;;;10.18;;
25107;SDS011;13090;53.422;7.670;2023-03-01T11:57:55;11.23;;;8.23;;
25107;SDS011;13090;53.422;7.670;2023-03-01T12:03:20;13.15;;;10.02;;
25107;SDS011;13090;53.422;7.670;2023-03-01T12:08:34;11.98;;;8.30;;
25107;SDS011;13090;53.422;7.670;2023-03-01T12:19:17;12.13;;;8.73;;
25107;SDS011;13090;53.422;7.670;2023-03-01T12:24:45;14.13;;;8.68;;
25107;SDS011;13090;53.422;7.670;2023-03-01T12:29:59;10.20;;;8.73;;
25107;SDS011;13090;53.422;7.670;2023-03-01T12:46:20;12.63;;;9.40;;
25107;SDS011;13090;53.422;7.670;2023-03-01T12:51:31;12.20;;;9.20;;
25107;SDS011;13090;53.422;7.670;2023-03-01T12:56:37;11.77;;;8.02;;
25107;SDS011;13090;53.422;7.670;2023-03-01T13:01:42;12.80;;;6.90;;
25107;SDS011;13090;53.422;7.670;2023-03-01T13:06:54;10.88;;;6.45;;
25107;SDS011;13090;53.422;7.670;2023-03-01T13:17:43;9.00;;;7.15;;
25107;SDS011;13090;53.422;7.670;2023-03-01T13:22:47;12.20;;;9.00;;
25107;SDS011;13090;53.422;7.670;2023-03-01T13:33:43;11.85;;;7.60;;
25107;SDS011;13090;53.422;7.670;2023-03-01T13:38:48;12.35;;;9.55;;
25107;SDS011;13090;53.422;7.670;2023-03-01T13:43:58;16.27;;;9.50;;
25107;SDS011;13090;53.422;7.670;2023-03-01T13:49:03;14.60;;;9.77;;
25107;SDS011;13090;53.422;7.670;2023-03-01T13:54:09;16.73;;;12.63;;
25107;SDS011;13090;53.422;7.670;2023-03-01T13:59:14;12.98;;;9.35;;
25107;SDS011;13090;53.422;7.670;2023-03-01T14:04:21;11.38;;;8.75;;
25107;SDS011;13090;53.422;7.670;2023-03-01T14:14:32;13.20;;;8.23;;
25107;SDS011;13090;53.422;7.670;2023-03-01T14:19:55;11.82;;;9.15;;
25107;SDS011;13090;53.422;7.670;2023-03-01T14:25:01;12.50;;;10.00;;
25107;SDS011;13090;53.422;7.670;2023-03-01T14:30:10;12.50;;;9.32;;
25107;SDS011;13090;53.422;7.670;2023-03-01T14:35:21;9.65;;;7.68;;
25107;SDS011;13090;53.422;7.670;2023-03-01T14:40:26;11.73;;;8.18;;
25107;SDS011;13090;53.422;7.670;2023-03-01T14:45:30;11.50;;;8.77;;
25107;SDS011;13090;53.422;7.670;2023-03-01T14:50:36;12.02;;;8.45;;
25107;SDS011;13090;53.422;7.670;2023-03-01T14:55:44;11.55;;;8.32;;
25107;SDS011;13090;53.422;7.670;2023-03-01T15:00:50;9.60;;;8.15;;
25107;SDS011;13090;53.422;7.670;2023-03-01T15:05:55;20.13;;;12.48;;
25107;SDS011;13090;53.422;7.670;2023-03-01T15:10:59;14.15;;;10.75;;
25107;SDS011;13090;53.422;7.670;2023-03-01T15:16:07;13.40;;;9.88;;
25107;SDS011;13090;53.422;7.670;2023-03-01T15:21:17;13.85;;;9.95;;
25107;SDS011;13090;53.422;7.670;2023-03-01T15:26:24;16.15;;;10.88;;
25107;SDS011;13090;53.422;7.670;2023-03-01T15:31:29;13.63;;;9.02;;
25107;SDS011;13090;53.422;7.670;2023-03-01T15:36:44;12.30;;;9.10;;
25107;SDS011;13090;53.422;7.670;2023-03-01T15:41:47;12.73;;;8.38;;
25107;SDS011;13090;53.422;7.670;2023-03-01T15:46:50;11.20;;;8.00;;
25107;SDS011;13090;53.422;7.670;2023-03-01T15:51:54;18.77;;;11.30;;
25107;SDS011;13090;53.422;7.670;2023-03-01T15:56:56;11.98;;;8.45;;
25107;SDS011;13090;53.422;7.670;2023-03-01T16:01:59;11.68;;;8.70;;
25107;SDS011;13090;53.422;7.670;2023-03-01T16:07:03;11.57;;;8.43;;
25107;SDS011;13090;53.422;7.670;2023-03-01T16:12:08;12.02;;;7.97;;
25107;SDS011;13090;53.422;7.670;2023-03-01T16:17:15;11.68;;;8.52;;
25107;SDS011;13090;53.422;7.670;2023-03-01T16:22:19;10.35;;;7.95;;
25107;SDS011;13090;53.422;7.670;2023-03-01T16:27:21;12.63;;;8.60;;
25107;SDS011;13090;53.422;7.670;2023-03-01T16:32:24;12.68;;;9.45;;
25107;SDS011;13090;53.422;7.670;2023-03-01T16:37:27;12.20;;;8.57;;
25107;SDS011;13090;53.422;7.670;2023-03-01T16:42:33;12.95;;;9.00;;
25107;SDS011;13090;53.422;7.670;2023-03-01T16:47:35;10.48;;;7.78;;
25107;SDS011;13090;53.422;7.670;2023-03-01T16:52:39;12.43;;;8.10;;
25107;SDS011;13090;53.422;7.670;2023-03-01T16:57:41;13.70;;;8.95;;
25107;SDS011;13090;53.422;7.670;2023-03-01T17:02:43;12.20;;;8.27;;
25107;SDS011;13090;53.422;7.670;2023-03-01T17:07:47;11.80;;;8.68;;
25107;SDS011;13090;53.422;7.670;2023-03-01T17:12:49;9.35;;;7.22;;
25107;SDS011;13090;53.422;7.670;2023-03-01T17:17:51;10.48;;;7.25;;
25107;SDS011;13090;53.422;7.670;2023-03-01T17:22:55;9.98;;;7.30;;
25107;SDS011;13090;53.422;7.670;2023-03-01T17:27:57;13.38;;;8.32;;
25107;SDS011;13090;53.422;7.670;2023-03-01T17:32:59;14.95;;;8.68;;
25107;SDS011;13090;53.422;7.670;2023-03-01T17:38:03;10.15;;;6.70;;
25107;SDS011;13090;53.422;7.670;2023-03-01T17:43:06;10.48;;;7.07;;
25107;SDS011;13090;53.422;7.670;2023-03-01T17:48:09;16.23;;;8.70;;
25107;SDS011;13090;53.422;7.670;2023-03-01T17:53:13;13.23;;;8.73;;
25107;SDS011;13090;53.422;7.670;2023-03-01T17:58:15;15.02;;;9.02;;
25107;SDS011;13090;53.422;7.670;2023-03-01T18:03:17;11.85;;;7.78;;
25107;SDS011;13090;53.422;7.670;2023-03-01T18:08:21;11.93;;;7.93;;
25107;SDS011;13090;53.422;7.670;2023-03-01T18:13:23;13.20;;;8.00;;
25107;SDS011;13090;53.422;7.670;2023-03-01T18:18:25;13.05;;;7.43;;
25107;SDS011;13090;53.422;7.670;2023-03-01T18:23:30;9.52;;;6.75;;
25107;SDS011;13090;53.422;7.670;2023-03-01T18:28:33;11.75;;;7.93;;
25107;SDS011;13090;53.422;7.670;2023-03-01T18:33:36;11.90;;;7.82;;
25107;SDS011;13090;53.422;7.670;2023-03-01T18:38:40;10.45;;;7.03;;
25107;SDS011;13090;53.422;7.670;2023-03-01T18:43:42;11.23;;;6.72;;
25107;SDS011;13090;53.422;7.670;2023-03-01T18:48:44;10.05;;;6.22;;
25107;SDS011;13090;53.422;7.670;2023-03-01T18:53:48;12.48;;;7.43;;
25107;SDS011;13090;53.422;7.670;2023-03-01T18:58:50;10.75;;;7.40;;
25107;SDS011;13090;53.422;7.670;2023-03-01T19:03:52;13.85;;;7.68;;
25107;SDS011;13090;53.422;7.670;2023-03-01T19:08:57;10.00;;;6.72;;
25107;SDS011;13090;53.422;7.670;2023-03-01T19:13:59;9.85;;;6.97;;
25107;SDS011;13090;53.422;7.670;2023-03-01T19:19:03;9.10;;;6.30;;
25107;SDS011;13090;53.422;7.670;2023-03-01T19:24:08;9.13;;;6.25;;
25107;SDS011;13090;53.422;7.670;2023-03-01T19:29:10;9.15;;;6.95;;
25107;SDS011;13090;53.422;7.670;2023-03-01T19:34:12;9.95;;;6.45;;
25107;SDS011;13090;53.422;7.670;2023-03-01T19:39:16;8.32;;;5.35;;
25107;SDS011;13090;53.422;7.670;2023-03-01T19:44:18;7.40;;;5.40;;
25107;SDS011;13090;53.422;7.670;2023-03-01T19:49:21;9.30;;;6.05;;
25107;SDS011;13090;53.422;7.670;2023-03-01T19:54:24;9.10;;;6.00;;
25107;SDS011;13090;53.422;7.670;2023-03-01T19:59:26;7.85;;;6.38;;
25107;SDS011;13090;53.422;7.670;2023-03-01T20:04:28;8.88;;;7.50;;
25107;SDS011;13090;53.422;7.670;2023-03-01T20:09:32;9.27;;;7.18;;
25107;SDS011;13090;53.422;7.670;2023-03-01T20:14:34;9.00;;;7.03;;
25107;SDS011;13090;53.422;7.670;2023-03-01T20:19:36;10.55;;;8.00;;
25107;SDS011;13090;53.422;7.670;2023-03-01T20:24:40;8.30;;;6.90;;
25107;SDS011;13090;53.422;7.670;2023-03-01T20:29:43;10.68;;;8.18;;
25107;SDS011;13090;53.422;7.670;2023-03-01T20:34:45;6.40;;;5.80;;
25107;SDS011;13090;53.422;7.670;2023-03-01T20:39:49;5.82;;;5.22;;
25107;SDS011;13090;53.422;7.670;2023-03-01T20:44:51;6.85;;;5.70;;
25107;SDS011;13090;53.422;7.670;2023-03-01T20:49:53;6.70;;;5.53;;
25107;SDS011;13090;53.422;7.670;2023-03-01T20:54:57;6.18;;;5.55;;
25107;SDS011;13090;53.422;7.670;2023-03-01T20:59:59;7.50;;;5.95;;
25107;SDS011;13090;53.422;7.670;2023-03-01T21:05:01;8.98;;;7.20;;
25107;SDS011;13090;53.422;7.670;2023-03-01T21:10:05;8.88;;;7.45;;
25107;SDS011;13090;53.422;7.670;2023-03-01T21:15:08;10.05;;;7.20;;
25107;SDS011;13090;53.422;7.670;2023-03-01T21:20:16;11.07;;;8.60;;
25107;SDS011;13090;53.422;7.670;2023-03-01T21:25:20;11.30;;;8.13;;
25107;SDS011;13090;53.422;7.670;2023-03-01T21:30:22;10.40;;;8.32;;
25107;SDS011;13090;53.422;7.670;2023-03-01T21:35:24;12.65;;;8.75;;
25107;SDS011;13090;53.422;7.670;2023-03-01T21:40:29;13.85;;;9.55;;
25107;SDS011;13090;53.422;7.670;2023-03-01T21:45:33;13.10;;;8.98;;
25107;SDS011;13090;53.422;7.670;2023-03-01T21:50:35;11.18;;;7.70;;
25107;SDS011;13090;53.422;7.670;2023-03-01T21:55:46;18.17;;;11.25;;
25107;SDS011;13090;53.422;7.670;2023-03-01T22:00:49;20.95;;;11.88;;
25107;SDS011;13090;53.422;7.670;2023-03-01T22:05:54;14.27;;;10.43;;
25107;SDS011;13090;53.422;7.670;2023-03-01T22:11:00;16.65;;;11.00;;
25107;SDS011;13090;53.422;7.670;2023-03-01T22:16:03;16.02;;;10.38;;
25107;SDS011;13090;53.422;7.670;2023-03-01T22:21:06;14.60;;;10.77;;
25107;SDS011;13090;53.422;7.670;2023-03-01T22:26:19;14.32;;;10.57;;
25107;SDS011;13090;53.422;7.670;2023-03-01T22:31:24;18.42;;;12.77;;
25107;SDS011;13090;53.422;7.670;2023-03-01T22:36:28;19.05;;;12.13;;
25107;SDS011;13090;53.422;7.670;2023-03-01T22:41:33;17.95;;;11.73;;
25107;SDS011;13090;53.422;7.670;2023-03-01T22:46:36;16.75;;;10.02;;
25107;SDS011;13090;53.422;7.670;2023-03-01T22:51:39;14.10;;;9.75;;
25107;SDS011;13090;53.422;7.670;2023-03-01T22:56:44;14.50;;;10.02;;
25107;SDS011;13090;53.422;7.670;2023-03-01T23:01:47;13.75;;;9.45;;
25107;SDS011;13090;53.422;7.670;2023-03-01T23:06:50;17.52;;;11.00;;
25107;SDS011;13090;53.422;7.670;2023-03-01T23:11:53;18.13;;;11.95;;
25107;SDS011;13090;53.422;7.670;2023-03-01T23:16:55;16.50;;;11.40;;
25107;SDS011;13090;53.422;7.670;2023-03-01T23:21:58;19.30;;;13.52;;
25107;SDS011;13090;53.422;7.670;2023-03-01T23:27:02;21.70;;;14.00;;
25107;SDS011;13090;53.422;7.670;2023-03-01T23:32:05;23.25;;;13.55;;
25107;SDS011;13090;53.422;7.670;2023-03-01T23:37:07;27.13;;;14.73;;
25107;SDS011;13090;53.422;7.670;2023-03-01T23:42:11;26.75;;;15.85;;
25107;SDS011;13090;53.422;7.670;2023-03-01T23:47:13;34.53;;;18.85;;
25107;SDS011;13090;53.422;7.670;2023-03-01T23:52:16;33.67;;;19.17;;
25107;SDS011;13090;53.422;7.670;2023-03-01T23:57:19;34.10;;;19.20;;
